createdAt,value
2024-03-03T00:00:14.978Z,33.83
2024-03-03T00:04:17.261Z,30.93
2024-03-03T00:08:19.433Z,29.50
2024-03-03T00:12:21.609Z,31.40
2024-03-03T00:16:23.831Z,32.17
2024-03-03T00:20:26.017Z,30.93
2024-03-03T00:24:28.208Z,31.73
2024-03-03T00:28:30.341Z,33.50
2024-03-03T00:32:32.541Z,34.10
2024-03-03T00:36:34.776Z,35.13
2024-03-03T00:40:37.166Z,29.20
2024-03-03T00:44:39.326Z,30.83
2024-03-03T00:48:41.478Z,31.93
2024-03-03T00:52:43.659Z,35.17
2024-03-03T00:56:45.890Z,34.63
2024-03-03T01:00:48.080Z,34.70
2024-03-03T01:04:53.151Z,37.00
2024-03-03T01:08:55.313Z,35.10
2024-03-03T01:12:57.677Z,32.93
2024-03-03T01:16:59.957Z,35.03
2024-03-03T01:21:02.878Z,33.77
2024-03-03T01:25:05.386Z,30.63
2024-03-03T01:29:07.555Z,38.37
2024-03-03T01:33:09.776Z,34.23
2024-03-03T01:37:12.080Z,32.30
2024-03-03T01:41:14.228Z,33.37
2024-03-03T01:45:22.330Z,31.97
2024-03-03T01:49:24.860Z,39.37
2024-03-03T01:53:27.664Z,31.63
2024-03-03T01:57:29.888Z,36.80
2024-03-03T02:01:32.960Z,35.70
2024-03-03T02:05:38.442Z,33.63
2024-03-03T02:09:43.304Z,34.63
2024-03-03T02:13:45.917Z,32.40
2024-03-03T02:17:48.513Z,31.50
2024-03-03T02:21:50.779Z,33.07
2024-03-03T02:25:53.008Z,35.23
2024-03-03T02:29:55.217Z,34.27
2024-03-03T02:33:57.402Z,36.57
2024-03-03T02:37:59.626Z,35.20
2024-03-03T02:42:01.952Z,32.30
2024-03-03T02:46:04.181Z,33.20
2024-03-03T02:50:06.660Z,34.17
2024-03-03T02:54:08.870Z,35.47
2024-03-03T02:58:11.085Z,32.17
2024-03-03T03:02:13.283Z,32.53
2024-03-03T03:06:15.442Z,35.70
2024-03-03T03:10:17.906Z,32.70
2024-03-03T03:14:20.407Z,33.47
2024-03-03T03:18:22.562Z,36.10
2024-03-03T03:22:25.107Z,37.50
2024-03-03T03:26:27.475Z,32.67
2024-03-03T03:30:29.589Z,32.80
2024-03-03T03:34:31.770Z,38.20
2024-03-03T03:38:33.905Z,37.37
2024-03-03T03:42:36.079Z,32.60
2024-03-03T03:46:38.219Z,33.17
2024-03-03T03:50:40.381Z,33.50
2024-03-03T03:54:42.641Z,34.90
2024-03-03T03:58:44.776Z,35.83
2024-03-03T04:02:47.802Z,33.40
2024-03-03T04:06:50.098Z,33.03
2024-03-03T04:10:52.402Z,34.00
2024-03-03T04:14:54.643Z,34.57
2024-03-03T04:18:56.801Z,39.33
2024-03-03T04:22:58.962Z,38.90
2024-03-03T04:27:01.170Z,36.27
2024-03-03T04:31:06.712Z,36.97
2024-03-03T04:35:09.255Z,38.90
2024-03-03T04:39:11.468Z,36.93
2024-03-03T04:43:13.728Z,37.83
2024-03-03T04:47:16.008Z,33.67
2024-03-03T04:51:18.122Z,35.17
2024-03-03T04:55:20.390Z,38.43
2024-03-03T04:59:22.590Z,30.60
2024-03-03T05:03:25.686Z,35.70
2024-03-03T05:07:27.917Z,36.97
2024-03-03T05:11:30.106Z,33.97
2024-03-03T05:15:32.714Z,38.13
2024-03-03T05:19:34.884Z,37.73
2024-03-03T05:23:37.000Z,35.80
2024-03-03T05:27:39.246Z,34.97
2024-03-03T05:31:42.212Z,32.07
2024-03-03T05:35:44.422Z,37.13
2024-03-03T05:39:46.694Z,32.73
2024-03-03T05:43:48.927Z,32.57
2024-03-03T05:47:51.133Z,37.73
2024-03-03T05:51:53.492Z,37.50
2024-03-03T05:55:55.690Z,33.97
2024-03-03T05:59:57.877Z,35.13
2024-03-03T06:04:00.111Z,38.17
2024-03-03T06:08:02.921Z,34.40
2024-03-03T06:12:05.282Z,34.63
2024-03-03T06:16:07.464Z,35.27
2024-03-03T06:20:09.732Z,36.73
2024-03-03T06:24:11.889Z,37.10
2024-03-03T06:28:14.146Z,33.27
2024-03-03T06:32:16.371Z,60.47
2024-03-03T06:36:19.011Z,56.53
2024-03-03T06:40:21.304Z,35.00
2024-03-03T06:44:23.489Z,38.87
2024-03-03T06:48:25.672Z,37.87
2024-03-03T06:52:28.370Z,34.17
2024-03-03T06:56:30.594Z,40.27
2024-03-03T07:00:32.851Z,37.37
2024-03-03T07:04:35.060Z,36.23
2024-03-03T07:08:37.196Z,35.80
2024-03-03T07:12:39.370Z,43.07
2024-03-03T07:16:41.595Z,38.57
2024-03-03T07:20:43.743Z,40.60
2024-03-03T07:24:45.988Z,35.60
2024-03-03T07:28:48.156Z,34.43
2024-03-03T07:32:50.334Z,36.63
2024-03-03T07:36:52.621Z,31.67
2024-03-03T07:40:54.796Z,35.43
2024-03-03T07:44:56.966Z,29.73
2024-03-03T07:48:59.078Z,30.47
2024-03-03T07:53:01.360Z,32.13
2024-03-03T07:57:03.520Z,29.97
2024-03-03T08:01:06.275Z,30.93
2024-03-03T08:05:08.652Z,33.70
2024-03-03T08:09:11.023Z,26.47
2024-03-03T08:13:13.279Z,32.53
2024-03-03T08:17:15.512Z,27.33
2024-03-03T08:21:17.716Z,30.00
2024-03-03T08:25:20.254Z,26.40
2024-03-03T08:29:22.484Z,29.57
2024-03-03T08:33:24.696Z,26.17
2024-03-03T08:37:26.966Z,27.97
2024-03-03T08:41:29.136Z,29.10
2024-03-03T08:45:31.332Z,27.77
2024-03-03T08:49:33.488Z,23.53
2024-03-03T08:53:35.716Z,28.57
2024-03-03T08:57:37.854Z,24.50
2024-03-03T09:01:40.182Z,26.00
2024-03-03T09:05:42.313Z,23.43
2024-03-03T09:09:46.621Z,26.70
2024-03-03T09:13:50.418Z,25.93
2024-03-03T09:17:52.673Z,21.67
2024-03-03T09:21:54.901Z,22.13
2024-03-03T09:25:57.093Z,21.03
2024-03-03T09:29:59.339Z,23.90
2024-03-03T09:34:01.534Z,20.33
2024-03-03T09:38:03.750Z,23.47
2024-03-03T09:42:06.163Z,19.57
2024-03-03T09:46:10.414Z,20.30
2024-03-03T09:50:15.496Z,18.80
2024-03-03T09:54:20.201Z,18.03
2024-03-03T09:58:22.443Z,19.67
2024-03-03T10:02:25.985Z,18.87
2024-03-03T10:06:28.484Z,16.92
2024-03-03T10:10:30.838Z,20.67
2024-03-03T10:14:33.081Z,16.70
2024-03-03T10:18:35.258Z,15.48
2024-03-03T10:22:37.411Z,16.50
2024-03-03T10:26:39.595Z,20.10
2024-03-03T10:30:41.818Z,15.77
2024-03-03T10:34:44.002Z,16.50
2024-03-03T10:38:46.227Z,13.70
2024-03-03T10:42:48.449Z,14.88
2024-03-03T10:46:51.461Z,16.35
2024-03-03T10:50:53.830Z,14.65
2024-03-03T10:54:56.024Z,17.45
2024-03-03T10:58:58.182Z,17.17
2024-03-03T11:03:01.025Z,14.80
2024-03-03T11:07:03.956Z,13.55
2024-03-03T11:11:07.845Z,15.32
2024-03-03T11:15:13.208Z,16.20
2024-03-03T11:19:18.847Z,14.88
2024-03-03T11:23:41.231Z,12.90
2024-03-03T11:27:44.908Z,12.57
2024-03-03T11:31:47.861Z,13.48
2024-03-03T11:35:51.365Z,14.63
2024-03-03T11:39:56.247Z,16.45
2024-03-03T11:43:58.488Z,17.52
2024-03-03T11:48:03.885Z,13.63
2024-03-03T11:52:06.125Z,16.65
2024-03-03T11:56:18.721Z,18.65
2024-03-03T12:00:21.855Z,14.55
2024-03-03T12:04:24.057Z,14.00
2024-03-03T12:08:26.683Z,12.07
2024-03-03T12:12:29.871Z,12.40
2024-03-03T12:16:32.538Z,12.57
2024-03-03T12:20:34.714Z,13.93
2024-03-03T12:24:37.807Z,12.60
2024-03-03T12:28:40.087Z,12.57
2024-03-03T12:32:42.350Z,13.32
2024-03-03T12:36:44.971Z,11.68
2024-03-03T12:40:47.347Z,13.35
2024-03-03T12:44:51.933Z,12.27
2024-03-03T12:48:55.379Z,14.57
2024-03-03T12:52:57.677Z,14.90
2024-03-03T12:56:59.931Z,15.85
2024-03-03T13:01:02.204Z,17.20
2024-03-03T13:05:04.483Z,16.38
2024-03-03T13:09:06.717Z,15.75
2024-03-03T13:13:09.367Z,19.40
2024-03-03T13:17:12.208Z,19.10
2024-03-03T13:21:14.413Z,16.80
2024-03-03T13:25:16.684Z,22.00
2024-03-03T13:29:19.113Z,19.17
2024-03-03T13:33:24.159Z,17.92
2024-03-03T13:37:26.880Z,21.33
2024-03-03T13:41:29.123Z,18.35
2024-03-03T13:45:31.256Z,16.83
2024-03-03T13:49:43.268Z,18.88
2024-03-03T13:53:45.486Z,19.00
2024-03-03T13:57:47.838Z,16.13
2024-03-03T14:01:50.147Z,17.02
2024-03-03T14:05:52.343Z,18.10
2024-03-03T14:09:54.464Z,21.40
2024-03-03T14:13:56.695Z,19.73
2024-03-03T14:17:59.171Z,20.25
2024-03-03T14:22:01.526Z,17.88
2024-03-03T14:26:03.714Z,18.27
2024-03-03T14:30:06.428Z,15.40
2024-03-03T14:34:08.557Z,19.77
2024-03-03T14:38:10.698Z,20.88
2024-03-03T14:42:12.826Z,18.70
2024-03-03T14:46:15.179Z,16.77
2024-03-03T14:50:17.488Z,22.02
2024-03-03T14:54:19.618Z,18.08
2024-03-03T14:58:21.797Z,15.88
2024-03-03T15:02:23.941Z,23.20
2024-03-03T15:06:26.106Z,22.23
2024-03-03T15:10:28.460Z,16.48
2024-03-03T15:14:30.716Z,16.65
2024-03-03T15:18:32.821Z,17.88
2024-03-03T15:22:35.000Z,15.73
2024-03-03T15:26:37.160Z,13.60
2024-03-03T15:30:39.231Z,12.57
2024-03-03T15:34:41.530Z,12.55
2024-03-03T15:38:43.767Z,10.70
2024-03-03T15:42:45.926Z,10.95
2024-03-03T15:46:49.181Z,10.57
2024-03-03T15:50:51.330Z,10.23
2024-03-03T15:54:53.681Z,10.98
2024-03-03T15:58:55.840Z,19.77
2024-03-03T16:02:57.954Z,15.95
2024-03-03T16:07:00.187Z,19.38
2024-03-03T16:11:02.454Z,22.85
2024-03-03T16:15:04.745Z,22.63
2024-03-03T16:19:07.026Z,20.35
2024-03-03T16:23:09.331Z,20.27
2024-03-03T16:27:12.960Z,21.30
2024-03-03T16:31:15.144Z,27.95
2024-03-03T16:35:17.386Z,20.35
2024-03-03T16:39:19.555Z,21.35
2024-03-03T16:43:21.828Z,17.98
2024-03-03T16:47:23.990Z,21.73
2024-03-03T16:51:26.152Z,23.55
2024-03-03T16:55:28.386Z,26.75
2024-03-03T16:59:30.727Z,23.05
2024-03-03T17:03:32.876Z,19.13
2024-03-03T17:07:35.349Z,18.88
2024-03-03T17:11:37.508Z,17.27
2024-03-03T17:15:39.689Z,19.10
2024-03-03T17:19:42.030Z,22.55
2024-03-03T17:23:44.160Z,22.05
2024-03-03T17:27:46.341Z,22.13
2024-03-03T17:31:48.539Z,17.17
2024-03-03T17:35:50.717Z,16.50
2024-03-03T17:39:52.981Z,15.48
2024-03-03T17:43:55.158Z,16.13
2024-03-03T17:47:57.331Z,14.93
2024-03-03T17:51:59.617Z,11.23
2024-03-03T17:56:02.424Z,16.40
2024-03-03T18:00:04.937Z,12.50
2024-03-03T18:04:14.735Z,16.85
2024-03-03T18:08:16.896Z,14.70
2024-03-03T18:12:19.124Z,17.85
2024-03-03T18:16:21.801Z,11.93
2024-03-03T18:20:23.949Z,16.65
2024-03-03T18:24:26.208Z,11.30
2024-03-03T18:28:28.534Z,20.95
2024-03-03T18:32:33.624Z,12.27
2024-03-03T18:36:36.997Z,11.43
2024-03-03T18:40:39.279Z,14.90
2024-03-03T18:44:41.695Z,13.07
2024-03-03T18:48:43.832Z,10.50
2024-03-03T18:52:45.928Z,15.70
2024-03-03T18:56:48.112Z,16.20
2024-03-03T19:00:50.577Z,15.40
2024-03-03T19:04:52.791Z,20.42
2024-03-03T19:08:54.948Z,13.32
2024-03-03T19:12:57.139Z,13.75
2024-03-03T19:16:59.302Z,15.25
2024-03-03T19:21:01.408Z,18.02
2024-03-03T19:25:03.893Z,13.98
2024-03-03T19:29:06.145Z,19.45
2024-03-03T19:33:08.314Z,14.48
2024-03-03T19:37:10.631Z,22.17
2024-03-03T19:41:12.832Z,10.90
2024-03-03T19:45:15.018Z,18.58
2024-03-03T19:49:17.315Z,23.63
2024-03-03T19:53:19.708Z,16.63
2024-03-03T19:57:21.873Z,13.65
2024-03-03T20:01:24.197Z,21.08
2024-03-03T20:05:26.512Z,16.23
2024-03-03T20:13:13.544Z,13.23
2024-03-03T20:17:15.772Z,14.57
2024-03-03T20:21:18.124Z,12.38
2024-03-03T20:25:20.451Z,13.07
2024-03-03T20:29:22.701Z,22.27
2024-03-03T20:33:24.955Z,22.50
2024-03-03T20:37:27.577Z,17.17
2024-03-03T20:41:29.898Z,13.85
2024-03-03T20:45:32.135Z,21.48
2024-03-03T20:49:34.385Z,17.42
2024-03-03T20:53:36.624Z,14.80
2024-03-03T20:57:39.563Z,16.50
2024-03-03T21:01:41.784Z,24.13
2024-03-03T21:05:44.062Z,16.60
2024-03-03T21:09:46.295Z,14.35
2024-03-03T21:13:48.512Z,11.32
2024-03-03T21:17:50.668Z,8.80
2024-03-03T21:21:52.882Z,11.20
2024-03-03T21:25:55.243Z,18.23
2024-03-03T21:29:57.401Z,16.90
2024-03-03T21:33:59.539Z,18.42
2024-03-03T21:38:01.787Z,8.90
2024-03-03T21:42:03.991Z,18.80
2024-03-03T21:46:06.228Z,16.40
2024-03-03T21:50:08.617Z,16.33
2024-03-03T21:54:10.757Z,16.17
2024-03-03T21:58:12.956Z,14.98
2024-03-03T22:02:15.434Z,13.30
2024-03-03T22:06:17.717Z,13.65
2024-03-03T22:10:19.868Z,14.18
2024-03-03T22:14:22.020Z,17.00
2024-03-03T22:18:24.185Z,23.30
2024-03-03T22:22:26.433Z,16.50
2024-03-03T22:26:29.769Z,16.13
2024-03-03T22:30:32.115Z,16.10
2024-03-03T22:34:34.409Z,16.73
2024-03-03T22:38:36.573Z,15.80
2024-03-03T22:42:39.136Z,15.75
2024-03-03T22:46:41.384Z,18.10
2024-03-03T22:50:43.649Z,17.75
2024-03-03T22:54:45.760Z,15.88
2024-03-03T22:58:52.114Z,16.75
2024-03-03T23:02:55.940Z,18.00
2024-03-03T23:06:58.125Z,16.58
2024-03-03T23:11:00.364Z,21.38
2024-03-03T23:15:02.607Z,15.57
2024-03-03T23:19:05.743Z,16.58
2024-03-03T23:23:07.970Z,15.13
2024-03-03T23:27:10.104Z,18.67
2024-03-03T23:36:21.829Z,15.70
2024-03-03T23:40:24.005Z,24.33
2024-03-03T23:44:26.180Z,15.02
2024-03-03T23:48:28.970Z,17.02
2024-03-03T23:52:31.231Z,17.23
2024-03-03T23:56:33.421Z,21.33
